createdAt,value
2022-08-12T00:02:03.486Z,2.17
2022-08-12T00:04:52.549Z,2.10
2022-08-12T00:07:38.863Z,2.30
2022-08-12T00:10:25.412Z,2.67
2022-08-12T00:13:13.245Z,2.63
2022-08-12T00:16:02.612Z,3.58
2022-08-12T00:18:48.724Z,2.90
2022-08-12T00:21:37.717Z,2.40
2022-08-12T00:24:24.868Z,2.33
2022-08-12T00:27:11.047Z,2.47
2022-08-12T00:29:56.609Z,2.90
2022-08-12T00:32:47.664Z,3.30
2022-08-12T00:35:42.131Z,2.60
2022-08-12T00:38:27.478Z,2.80
2022-08-12T00:41:13.211Z,2.75
2022-08-12T00:43:44.201Z,2.83
2022-08-12T00:46:29.417Z,2.97
2022-08-12T00:48:57.997Z,2.80
2022-08-12T00:51:45.828Z,2.80
2022-08-12T00:54:13.203Z,2.45
2022-08-12T00:56:40.063Z,2.47
2022-08-12T00:59:09.010Z,2.47
2022-08-12T01:02:02.106Z,2.15
2022-08-12T01:04:46.297Z,2.30
2022-08-12T01:07:32.610Z,2.00
2022-08-12T01:10:19.465Z,2.08
2022-08-12T01:13:07.715Z,2.38
2022-08-12T01:15:51.986Z,2.40
2022-08-12T01:18:27.984Z,2.13
2022-08-12T01:21:12.028Z,2.10
2022-08-12T01:23:45.020Z,2.05
2022-08-12T01:26:17.977Z,2.25
2022-08-12T01:28:47.009Z,2.35
2022-08-12T01:31:19.187Z,2.38
2022-08-12T01:34:28.505Z,2.80
2022-08-12T01:36:58.040Z,2.00
2022-08-12T01:40:35.055Z,2.00
2022-08-12T01:42:46.649Z,2.25
2022-08-12T01:45:15.682Z,2.88
2022-08-12T01:48:05.221Z,1.95
2022-08-12T01:50:39.551Z,2.38
2022-08-12T01:53:12.339Z,2.15
2022-08-12T01:55:49.618Z,2.00
2022-08-12T01:59:00.768Z,2.35
2022-08-12T02:01:34.508Z,2.65
2022-08-12T02:04:22.836Z,2.17
2022-08-12T02:07:10.948Z,2.45
2022-08-12T02:10:49.074Z,2.28
2022-08-12T02:13:15.431Z,2.08
2022-08-12T02:16:09.147Z,2.08
2022-08-12T02:19:03.468Z,2.40
2022-08-12T02:22:14.870Z,2.00
2022-08-12T02:24:44.329Z,2.38
2022-08-12T02:27:15.301Z,2.20
2022-08-12T02:29:42.214Z,1.98
2022-08-12T02:32:09.984Z,2.20
2022-08-12T02:34:38.034Z,2.22
2022-08-12T02:37:05.075Z,2.80
2022-08-12T02:39:35.336Z,2.03
2022-08-12T02:42:07.007Z,1.90
2022-08-12T02:44:40.399Z,2.30
2022-08-12T02:47:55.918Z,2.20
2022-08-12T02:49:58.797Z,2.28
2022-08-12T02:52:27.462Z,1.98
2022-08-12T02:55:03.683Z,2.00
2022-08-12T02:57:32.952Z,1.85
2022-08-12T03:00:07.466Z,2.20
2022-08-12T03:02:38.492Z,2.33
2022-08-12T03:05:06.137Z,2.10
2022-08-12T03:07:56.455Z,2.53
2022-08-12T03:10:37.071Z,2.22
2022-08-12T03:13:07.407Z,2.42
2022-08-12T03:15:35.909Z,2.15
2022-08-12T03:18:25.662Z,2.20
2022-08-12T03:20:57.001Z,2.30
2022-08-12T03:23:30.089Z,2.35
2022-08-12T03:26:01.780Z,2.67
2022-08-12T03:28:52.108Z,2.45
2022-08-12T03:31:30.131Z,1.95
2022-08-12T03:34:04.775Z,2.22
2022-08-12T03:36:35.411Z,2.28
2022-08-12T03:39:18.339Z,2.07
2022-08-12T03:42:11.589Z,2.10
2022-08-12T03:44:59.083Z,2.22
2022-08-12T03:47:49.944Z,2.10
2022-08-12T03:50:36.260Z,2.15
2022-08-12T03:53:27.944Z,2.20
2022-08-12T03:56:13.583Z,2.30
2022-08-12T03:58:59.021Z,2.33
2022-08-12T04:01:27.187Z,2.33
2022-08-12T04:03:55.110Z,2.42
2022-08-12T04:06:35.509Z,2.22
2022-08-12T04:09:16.432Z,2.60
2022-08-12T04:12:04.265Z,2.45
2022-08-12T04:14:32.647Z,2.50
2022-08-12T04:17:00.435Z,2.67
2022-08-12T04:19:27.709Z,2.60
2022-08-12T04:22:01.338Z,2.60
2022-08-12T04:24:34.868Z,2.20
2022-08-12T04:27:08.685Z,2.33
2022-08-12T04:30:16.896Z,2.22
2022-08-12T04:32:25.205Z,2.33
2022-08-12T04:34:52.633Z,2.28
2022-08-12T04:37:19.589Z,2.22
2022-08-12T04:39:47.316Z,2.25
2022-08-12T04:42:14.301Z,2.42
2022-08-12T04:44:42.217Z,2.38
2022-08-12T04:47:16.590Z,2.30
2022-08-12T04:49:45.266Z,2.85
2022-08-12T04:52:13.184Z,2.10
2022-08-12T04:54:40.468Z,2.35
2022-08-12T04:57:09.707Z,2.38
2022-08-12T04:59:48.230Z,2.38
2022-08-12T05:02:22.879Z,2.10
2022-08-12T05:04:55.731Z,2.00
2022-08-12T05:07:23.319Z,2.00
2022-08-12T05:09:59.829Z,1.70
2022-08-12T05:12:39.726Z,1.70
2022-08-12T05:15:18.964Z,2.17
2022-08-12T05:17:55.592Z,2.00
2022-08-12T05:20:23.049Z,1.63
2022-08-12T05:22:53.156Z,1.90
2022-08-12T05:25:24.455Z,1.67
2022-08-12T05:27:58.630Z,1.65
2022-08-12T05:30:27.302Z,1.95
2022-08-12T05:32:57.441Z,1.52
2022-08-12T05:35:27.824Z,1.65
2022-08-12T05:41:00.344Z,1.50
2022-08-12T05:47:38.507Z,1.80
2022-08-12T05:51:13.220Z,1.50
2022-08-12T05:53:40.871Z,2.33
2022-08-12T05:56:29.556Z,1.60
2022-08-12T05:58:58.136Z,1.70
2022-08-12T06:02:11.641Z,1.70
2022-08-12T06:04:17.360Z,1.60
2022-08-12T06:10:46.124Z,1.60
2022-08-12T06:13:15.148Z,1.48
2022-08-12T06:15:56.085Z,1.58
2022-08-12T06:18:27.769Z,1.35
2022-08-12T06:21:01.724Z,1.52
2022-08-12T06:23:30.123Z,1.85
2022-08-12T06:25:57.841Z,1.40
2022-08-12T06:28:24.788Z,2.05
2022-08-12T06:33:59.620Z,1.75
2022-08-12T06:36:32.658Z,1.65
2022-08-12T06:39:01.070Z,1.60
2022-08-12T06:42:27.703Z,1.30
2022-08-12T06:44:33.493Z,1.70
2022-08-12T06:47:00.641Z,1.50
2022-08-12T06:49:35.604Z,1.60
2022-08-12T06:55:57.959Z,1.48
2022-08-12T06:58:26.395Z,1.33
2022-08-12T07:00:55.960Z,1.70
2022-08-12T07:03:28.850Z,1.67
2022-08-12T07:06:01.886Z,1.80
2022-08-12T07:08:30.878Z,1.73
2022-08-12T07:11:00.266Z,1.60
2022-08-12T07:14:11.153Z,1.80
2022-08-12T07:16:27.045Z,1.50
2022-08-12T07:18:55.420Z,1.50
2022-08-12T07:21:57.959Z,1.80
2022-08-12T07:28:45.299Z,1.60
2022-08-12T07:35:45.289Z,2.20
2022-08-12T07:38:30.563Z,1.48
2022-08-12T07:41:06.140Z,1.60
2022-08-12T07:43:39.298Z,1.70
2022-08-12T07:46:08.772Z,1.75
2022-08-12T07:48:38.861Z,1.52
2022-08-12T07:54:51.715Z,1.40
2022-08-12T08:05:31.847Z,1.45
2022-08-12T08:11:59.317Z,1.75
2022-08-12T08:14:29.138Z,1.80
2022-08-12T08:21:32.948Z,1.55
2022-08-12T08:27:27.881Z,1.40
2022-08-12T08:29:56.737Z,1.27
2022-08-12T08:32:24.603Z,1.50
2022-08-12T08:35:47.635Z,1.42
2022-08-12T08:42:20.568Z,1.70
2022-08-12T08:44:49.789Z,1.60
2022-08-12T08:47:26.310Z,1.70
2022-08-12T08:57:26.914Z,1.60
2022-08-12T09:00:21.559Z,1.58
2022-08-12T09:10:32.361Z,1.85
2022-08-12T09:16:10.482Z,1.63
2022-08-12T09:18:41.157Z,1.70
2022-08-12T09:21:09.412Z,1.50
2022-08-12T09:26:28.193Z,1.70
2022-08-12T09:28:57.108Z,1.10
2022-08-12T09:32:08.042Z,1.40
2022-08-12T09:34:25.390Z,1.70
2022-08-12T09:37:00.783Z,1.45
2022-08-12T09:40:05.491Z,1.60
2022-08-12T09:42:43.085Z,1.73
2022-08-12T09:45:23.244Z,1.42
2022-08-12T09:47:59.136Z,1.58
2022-08-12T09:51:04.612Z,1.67
2022-08-12T09:53:39.563Z,1.60
2022-08-12T09:56:57.994Z,1.42
2022-08-12T09:59:01.450Z,2.28
2022-08-12T10:01:35.282Z,1.67
2022-08-12T10:04:19.766Z,1.70
2022-08-12T10:07:13.739Z,1.60
2022-08-12T10:09:58.486Z,1.52
2022-08-12T10:13:08.766Z,1.70
2022-08-12T10:16:02.978Z,1.60
2022-08-12T10:18:19.545Z,1.38
2022-08-12T10:20:46.356Z,1.45
2022-08-12T10:23:13.160Z,1.55
2022-08-12T10:26:35.281Z,1.73
2022-08-12T10:30:01.376Z,1.73
2022-08-12T10:32:21.574Z,1.88
2022-08-12T10:34:40.454Z,1.52
2022-08-12T10:37:23.521Z,1.75
2022-08-12T10:40:12.556Z,1.98
2022-08-12T10:43:00.919Z,1.60
2022-08-12T10:45:30.468Z,1.50
2022-08-12T10:48:20.056Z,2.22
2022-08-12T10:50:58.363Z,1.80
2022-08-12T10:53:45.438Z,1.23
2022-08-12T10:56:17.119Z,1.70
2022-08-12T10:58:46.819Z,1.45
2022-08-12T11:01:25.731Z,1.70
2022-08-12T11:04:41.233Z,1.77
2022-08-12T11:08:36.511Z,1.60
2022-08-12T11:10:02.458Z,2.13
2022-08-12T11:12:56.223Z,1.50
2022-08-12T11:15:33.315Z,1.88
2022-08-12T11:18:11.536Z,1.50
2022-08-12T11:20:39.591Z,2.03
2022-08-12T11:23:24.940Z,1.70
2022-08-12T11:25:58.142Z,1.70
2022-08-12T11:28:34.523Z,2.03
2022-08-12T11:31:06.315Z,1.55
2022-08-12T11:34:06.321Z,1.60
2022-08-12T11:36:22.226Z,1.50
2022-08-12T11:38:51.357Z,1.35
2022-08-12T11:41:30.990Z,1.45
2022-08-12T11:44:34.986Z,1.52
2022-08-12T11:46:51.479Z,1.50
2022-08-12T11:49:31.028Z,1.80
2022-08-12T11:52:00.633Z,1.60
2022-08-12T11:54:29.518Z,1.50
2022-08-12T11:56:59.993Z,1.63
2022-08-12T12:02:20.114Z,1.42
2022-08-12T12:04:52.331Z,1.75
2022-08-12T12:07:22.741Z,1.67
2022-08-12T12:10:11.210Z,1.95
2022-08-12T12:12:38.489Z,1.63
2022-08-12T12:15:09.755Z,1.95
2022-08-12T12:17:38.799Z,1.80
2022-08-12T12:20:09.434Z,1.75
2022-08-12T12:22:41.673Z,1.40
2022-08-12T12:25:13.635Z,1.52
2022-08-12T12:28:04.678Z,1.58
2022-08-12T12:30:32.600Z,1.65
2022-08-12T12:32:59.971Z,1.58
2022-08-12T12:36:05.779Z,1.60
2022-08-12T12:38:14.986Z,1.70
2022-08-12T12:40:45.135Z,1.55
2022-08-12T12:43:13.920Z,1.60
2022-08-12T12:45:45.784Z,1.70
2022-08-12T12:48:18.291Z,1.40
2022-08-12T12:51:12.196Z,1.73
2022-08-12T12:54:08.614Z,1.25
2022-08-12T12:56:34.044Z,1.65
2022-08-12T12:59:03.782Z,1.92
2022-08-12T13:01:32.029Z,1.85
2022-08-12T13:04:02.980Z,1.85
2022-08-12T13:06:31.774Z,1.50
2022-08-12T13:09:03.252Z,1.58
2022-08-12T13:11:40.668Z,1.67
2022-08-12T13:14:12.830Z,1.60
2022-08-12T13:16:54.499Z,1.63
2022-08-12T13:19:36.017Z,1.40
2022-08-12T13:53:24.223Z,1.53
2022-08-12T13:56:01.644Z,1.80
2022-08-12T14:33:25.240Z,1.60
2022-08-12T14:39:33.193Z,1.58
2022-08-12T14:42:12.338Z,2.50
2022-08-12T14:44:59.512Z,2.10
2022-08-12T14:47:26.840Z,2.38
2022-08-12T14:50:37.502Z,1.80
2022-08-12T15:02:04.035Z,1.77
2022-08-12T15:04:37.178Z,1.77
2022-08-12T15:07:05.248Z,2.00
2022-08-12T15:09:33.196Z,1.92
2022-08-12T15:12:03.986Z,2.25
2022-08-12T15:14:31.899Z,1.88
2022-08-12T15:17:00.276Z,2.25
2022-08-12T15:20:11.933Z,2.28
2022-08-12T15:22:39.317Z,2.10
2022-08-12T15:25:07.457Z,1.90
2022-08-12T15:28:04.131Z,1.90
2022-08-12T15:30:30.852Z,2.20
2022-08-12T15:32:57.781Z,1.70
2022-08-12T15:35:31.108Z,1.70
2022-08-12T15:38:17.169Z,2.08
2022-08-12T15:40:52.560Z,1.90
2022-08-12T15:43:35.518Z,2.30
2022-08-12T15:46:15.661Z,2.05
2022-08-12T15:48:47.038Z,2.17
2022-08-12T15:51:57.705Z,1.90
2022-08-12T15:54:34.955Z,2.03
2022-08-12T15:57:08.026Z,2.05
2022-08-12T15:59:59.934Z,2.25
2022-08-12T16:02:27.058Z,2.25
2022-08-12T16:04:56.277Z,2.08
2022-08-12T16:07:30.259Z,2.20
2022-08-12T16:10:06.796Z,2.90
2022-08-12T16:12:43.381Z,2.50
2022-08-12T16:15:13.431Z,2.42
2022-08-12T16:18:14.787Z,2.35
2022-08-12T16:20:34.863Z,1.98
2022-08-12T16:23:14.912Z,2.60
2022-08-12T16:26:03.334Z,2.35
2022-08-12T16:28:34.698Z,2.13
2022-08-12T16:31:02.322Z,2.45
2022-08-12T16:33:59.328Z,2.15
2022-08-12T16:36:25.604Z,2.40
2022-08-12T16:38:52.532Z,2.22
2022-08-12T16:41:19.408Z,2.45
2022-08-12T16:43:46.759Z,1.98
2022-08-12T16:46:31.445Z,1.90
2022-08-12T16:49:08.698Z,2.17
2022-08-12T16:51:40.596Z,2.20
2022-08-12T16:54:14.206Z,2.05
2022-08-12T16:56:55.489Z,2.10
2022-08-12T16:59:52.860Z,2.20
2022-08-12T17:02:18.027Z,2.20
2022-08-12T17:05:03.545Z,2.28
2022-08-12T17:07:38.138Z,2.00
2022-08-12T17:10:12.567Z,2.33
2022-08-12T17:12:40.171Z,2.08
2022-08-12T17:15:51.189Z,2.00
2022-08-12T17:18:39.347Z,2.30
2022-08-12T17:20:49.156Z,2.00
2022-08-12T17:23:19.405Z,1.80
2022-08-12T17:25:53.776Z,2.13
2022-08-12T17:28:22.590Z,1.73
2022-08-12T17:30:57.198Z,2.10
2022-08-12T17:33:33.522Z,2.10
2022-08-12T17:36:03.168Z,1.65
2022-08-12T17:38:30.589Z,2.70
2022-08-12T17:40:57.945Z,1.98
2022-08-12T17:43:56.089Z,2.03
2022-08-12T17:46:23.616Z,2.15
2022-08-12T17:48:55.279Z,2.20
2022-08-12T17:51:26.363Z,2.13
2022-08-12T18:05:04.948Z,1.88
2022-08-12T18:07:35.685Z,2.08
2022-08-12T18:10:05.132Z,2.08
2022-08-12T18:12:38.523Z,1.98
2022-08-12T18:15:26.947Z,2.13
2022-08-12T18:18:04.011Z,2.55
2022-08-12T18:20:35.316Z,2.13
2022-08-12T18:23:05.435Z,2.15
2022-08-12T18:26:13.862Z,2.20
2022-08-12T18:28:43.459Z,2.45
2022-08-12T18:31:14.458Z,2.30
2022-08-12T18:33:45.841Z,2.33
2022-08-12T18:38:44.853Z,2.10
2022-08-12T18:41:33.551Z,2.42
2022-08-12T18:44:09.743Z,2.80
2022-08-12T18:47:09.625Z,2.70
2022-08-12T18:49:42.591Z,2.42
2022-08-12T18:52:11.774Z,2.85
2022-08-12T18:54:54.006Z,15.68
2022-08-12T18:58:00.416Z,21.08
2022-08-12T19:00:21.379Z,5.93
2022-08-12T19:02:51.280Z,5.45
2022-08-12T19:05:18.238Z,6.70
2022-08-12T19:08:01.663Z,8.45
2022-08-12T19:10:32.433Z,6.38
2022-08-12T19:13:23.860Z,7.20
2022-08-12T19:15:57.465Z,5.45
2022-08-12T19:18:29.334Z,4.20
2022-08-12T19:21:11.645Z,4.00
2022-08-12T19:23:39.359Z,4.05
2022-08-12T19:26:10.827Z,3.90
2022-08-12T19:28:40.626Z,4.13
2022-08-12T19:31:55.762Z,4.05
2022-08-12T19:35:32.811Z,3.83
2022-08-12T19:37:26.898Z,3.40
2022-08-12T19:40:09.104Z,3.35
2022-08-12T19:42:53.356Z,2.92
2022-08-12T19:45:22.251Z,3.20
2022-08-12T19:47:49.375Z,2.88
2022-08-12T19:50:19.998Z,3.05
2022-08-12T19:52:47.920Z,3.00
2022-08-12T19:55:21.304Z,2.87
2022-08-12T19:58:01.674Z,3.00
2022-08-12T20:00:29.795Z,3.13
2022-08-12T20:03:00.268Z,2.65
2022-08-12T20:06:05.216Z,3.17
2022-08-12T20:08:26.430Z,3.00
2022-08-12T20:12:13.268Z,3.00
2022-08-12T20:14:00.318Z,2.83
2022-08-12T20:16:52.427Z,3.10
2022-08-12T20:19:14.532Z,2.95
2022-08-12T20:21:43.577Z,2.97
2022-08-12T20:24:12.741Z,3.38
2022-08-12T20:26:43.102Z,3.20
2022-08-12T20:29:13.258Z,2.95
2022-08-12T20:31:41.435Z,2.83
2022-08-12T20:34:12.077Z,2.78
2022-08-12T20:36:44.998Z,3.10
2022-08-12T20:39:34.199Z,3.25
2022-08-12T20:42:07.687Z,2.92
2022-08-12T20:44:40.815Z,3.25
2022-08-12T20:47:20.150Z,3.40
2022-08-12T20:49:55.492Z,3.10
2022-08-12T20:52:29.052Z,3.30
2022-08-12T20:54:57.189Z,3.28
2022-08-12T20:57:24.887Z,3.10
2022-08-12T21:00:15.330Z,3.40
2022-08-12T21:02:47.128Z,3.45
2022-08-12T21:06:09.920Z,2.97
2022-08-12T21:08:27.300Z,3.08
2022-08-12T21:10:59.241Z,3.03
2022-08-12T21:13:27.029Z,2.92
2022-08-12T21:16:00.042Z,3.17
2022-08-12T21:18:28.288Z,3.35
2022-08-12T21:20:58.895Z,3.00
2022-08-12T21:23:30.939Z,2.78
2022-08-12T21:26:16.310Z,3.42
2022-08-12T21:28:56.714Z,2.90
2022-08-12T21:34:17.966Z,2.90
2022-08-12T21:36:49.406Z,3.20
2022-08-12T21:39:21.290Z,3.05
2022-08-12T21:41:51.353Z,3.15
2022-08-12T21:44:24.454Z,2.88
2022-08-12T21:47:21.008Z,2.80
2022-08-12T21:50:03.942Z,2.97
2022-08-12T21:52:41.022Z,3.03
2022-08-12T21:55:17.682Z,3.20
2022-08-12T21:57:51.126Z,3.30
2022-08-12T22:00:32.137Z,3.25
2022-08-12T22:04:01.254Z,3.33
2022-08-12T22:06:20.359Z,3.20
2022-08-12T22:08:55.390Z,2.75
2022-08-12T22:11:23.362Z,3.13
2022-08-12T22:14:17.891Z,3.00
2022-08-12T22:16:46.905Z,2.85
2022-08-12T22:19:19.274Z,3.17
2022-08-12T22:21:53.241Z,3.28
2022-08-12T22:24:26.552Z,3.35
2022-08-12T22:26:58.027Z,3.00
2022-08-12T22:29:43.530Z,3.20
2022-08-12T22:32:11.294Z,3.25
2022-08-12T22:34:39.369Z,3.30
2022-08-12T22:37:11.195Z,3.30
2022-08-12T22:39:46.434Z,3.13
2022-08-12T22:42:34.117Z,2.97
2022-08-12T22:45:23.340Z,2.95
2022-08-12T22:47:55.576Z,3.25
2022-08-12T22:50:28.867Z,2.63
2022-08-12T22:53:16.010Z,2.85
2022-08-12T22:56:00.258Z,2.85
2022-08-12T22:58:34.118Z,2.90
2022-08-12T23:01:02.117Z,2.88
2022-08-12T23:03:49.036Z,3.13
2022-08-12T23:06:23.841Z,3.20
2022-08-12T23:08:52.267Z,3.47
2022-08-12T23:11:23.732Z,2.97
2022-08-12T23:13:56.925Z,3.22
2022-08-12T23:16:33.562Z,3.17
2022-08-12T23:19:10.967Z,3.13
2022-08-12T23:22:05.826Z,2.75
2022-08-12T23:24:55.381Z,3.00
2022-08-12T23:27:51.885Z,3.50
2022-08-12T23:30:32.104Z,2.83
2022-08-12T23:33:02.896Z,3.10
2022-08-12T23:35:45.698Z,3.08
2022-08-12T23:38:31.358Z,2.88
2022-08-12T23:41:03.411Z,3.28
2022-08-12T23:43:40.045Z,2.85
2022-08-12T23:46:12.416Z,3.47
2022-08-12T23:48:48.073Z,3.20
2022-08-12T23:51:23.708Z,3.30
2022-08-12T23:54:02.628Z,3.00
2022-08-12T23:56:33.999Z,3.28
2022-08-12T23:59:10.231Z,2.83
